Time;durP1;ratioP1;P1;durP2;ratioP2;P2;SDS_P1;SDS_P2;PMS_P1;PMS_P2;Temp;Humidity;BMP_temperature;BMP_pressure;BME280_temperature;BME280_humidity;BME280_pressure;Samples;Min_cycle;Max_cycle;Signal;HPM_P1;HPM_P2
2021/08/02 00:01:34;;;;;;;3.30;1.60;;;;;;;13.57;85.72;101458.50;6216284;23;20024;-78
2021/08/02 00:04:03;;;;;;;10.77;2.35;;;;;;;13.58;87.18;101461.16;6217441;23;20011;-77
2021/08/02 00:06:46;;;;;;;6.32;1.55;;;;;;;13.57;86.61;101458.50;6216383;23;20024;-80
2021/08/02 00:09:15;;;;;;;7.05;1.85;;;;;;;13.58;85.52;101452.31;6216887;23;20487;-77
2021/08/02 00:11:48;;;;;;;5.72;1.63;;;;;;;13.56;85.76;101456.72;6216140;23;20008;-76
2021/08/02 00:14:14;;;;;;;3.88;1.85;;;;;;;13.55;85.97;101453.19;6216804;23;20000;-79
2021/08/02 00:16:40;;;;;;;4.93;1.80;;;;;;;13.56;85.49;101462.00;6216227;23;20035;-79
2021/08/02 00:19:07;;;;;;;6.95;1.77;;;;;;;13.56;85.58;101462.88;6216780;23;20016;-78
2021/08/02 00:21:33;;;;;;;8.10;1.80;;;;;;;13.57;85.26;101453.22;6216425;23;20000;-78
2021/08/02 00:23:59;;;;;;;8.55;1.98;;;;;;;13.60;84.91;101461.19;6216797;23;20046;-79
2021/08/02 00:26:25;;;;;;;5.20;1.35;;;;;;;13.62;85.12;101463.00;6216408;23;20016;-78
2021/08/02 00:28:51;;;;;;;10.70;1.80;;;;;;;13.64;84.80;101466.53;6217093;23;20096;-81
2021/08/02 00:31:19;;;;;;;5.82;1.50;;;;;;;13.65;84.81;101447.16;6216213;23;20433;-81
2021/08/02 00:33:44;;;;;;;7.05;1.92;;;;;;;13.66;85.10;101456.00;6216524;23;20013;-81
2021/08/02 00:36:52;;;;;;;7.53;1.40;;;;;;;13.67;86.04;101460.41;6216562;23;20039;-80
2021/08/02 00:39:17;;;;;;;4.38;1.50;;;;;;;13.65;86.36;101454.22;6216894;23;20368;-79
2021/08/02 00:41:57;;;;;;;8.38;1.83;;;;;;;13.65;86.50;101456.84;6216163;23;20012;-80
2021/08/02 00:45:02;;;;;;;2.45;1.50;;;;;;;13.66;86.98;101461.28;6217056;23;20001;-79
2021/08/02 00:47:32;;;;;;;5.03;1.23;;;;;;;13.67;86.29;101455.09;6095015;23;20013;-79
2021/08/02 00:50:10;;;;;;;5.47;1.45;;;;;;;13.68;85.12;101458.66;6197758;23;20024;-77
2021/08/02 00:53:00;;;;;;;3.55;1.33;;;;;;;13.66;85.30;101451.59;6216145;23;20066;-77
2021/08/02 00:55:33;;;;;;;4.13;1.40;;;;;;;13.63;85.55;101453.28;6216070;23;20526;-79
2021/08/02 00:58:21;;;;;;;6.93;1.42;;;;;;;13.65;85.46;101457.72;6216013;23;20436;-78
2021/08/02 01:01:07;;;;;;;6.35;2.15;;;;;;;13.66;85.22;101458.63;6216153;23;20039;-78
2021/08/02 01:03:32;;;;;;;5.18;1.55;;;;;;;13.65;84.99;101452.44;6216082;23;20012;-79
2021/08/02 01:05:58;;;;;;;3.10;1.42;;;;;;;13.63;85.98;101461.22;6216433;23;20333;-79
2021/08/02 01:08:46;;;;;;;5.57;1.73;;;;;;;13.60;86.26;101461.19;6216713;23;20008;-76
2021/08/02 01:11:13;;;;;;;8.25;1.52;;;;;;;13.57;86.00;101463.78;6215591;23;20012;-81
2021/08/02 01:13:41;;;;;;;3.63;1.45;;;;;;;13.56;85.87;101460.25;6216271;23;20061;-79
2021/08/02 01:16:08;;;;;;;10.50;2.25;;;;;;;13.57;86.82;101463.78;6216441;23;20083;-78
2021/08/02 01:18:35;;;;;;;6.53;1.42;;;;;;;13.55;86.53;101460.22;6214167;23;20012;-79
2021/08/02 01:21:04;;;;;;;10.60;1.83;;;;;;;13.53;86.80;101462.84;6216146;23;20028;-80
2021/08/02 01:23:30;;;;;;;4.38;1.63;;;;;;;13.49;86.79;101467.19;6216973;23;20008;-78
2021/08/02 01:25:56;;;;;;;6.25;1.52;;;;;;;13.46;86.54;101461.88;6189751;23;20071;-80
2021/08/02 01:28:21;;;;;;;8.18;1.80;;;;;;;13.44;86.39;101458.34;6215757;23;20004;-77
2021/08/02 01:30:55;;;;;;;4.43;1.88;;;;;;;13.43;86.72;101461.84;6216128;23;20013;-81
2021/08/02 01:33:29;;;;;;;5.60;2.00;;;;;;;13.40;87.02;101460.91;6189115;23;20017;-77
2021/08/02 01:36:14;;;;;;;5.93;1.92;;;;;;;13.36;86.75;101465.25;6216132;23;20083;-81
2021/08/02 01:38:40;;;;;;;9.40;1.90;;;;;;;13.32;86.77;101464.28;6215332;23;20016;-78
2021/08/02 01:41:06;;;;;;;8.80;1.67;;;;;;;13.32;86.82;101466.03;6216312;23;20332;-80
2021/08/02 01:43:31;;;;;;;4.45;1.60;;;;;;;13.29;86.79;101468.63;6215737;23;20000;-79
2021/08/02 01:46:37;;;;;;;6.65;1.80;;;;;;;13.24;87.60;101470.31;6216326;23;20427;-79
2021/08/02 01:49:34;;;;;;;4.05;1.60;;;;;;;13.19;87.23;101469.38;6215021;23;20510;-81
2021/08/02 01:52:02;;;;;;;3.90;1.48;;;;;;;13.14;87.61;101466.63;6216684;23;20008;-80
2021/08/02 01:54:43;;;;;;;6.75;1.67;;;;;;;13.10;87.46;101471.00;6215691;23;20439;-76
2021/08/02 01:57:32;;;;;;;3.78;1.55;;;;;;;13.09;87.69;101471.84;6216044;23;20004;-79
2021/08/02 02:00:13;;;;;;;6.22;1.67;;;;;;;13.07;87.77;101468.28;6214684;23;20017;-80
2021/08/02 02:02:59;;;;;;;4.70;1.60;;;;;;;13.04;87.67;101470.00;6215593;23;20420;-80
2021/08/02 02:05:48;;;;;;;4.78;1.65;;;;;;;13.01;87.48;101462.00;6214578;23;20417;-79
2021/08/02 02:08:14;;;;;;;8.68;1.65;;;;;;;12.96;87.20;101464.59;6216003;23;20366;-78
2021/08/02 02:10:44;;;;;;;4.03;1.73;;;;;;;12.91;87.10;101460.97;6215865;23;20100;-81
2021/08/02 02:13:15;;;;;;;3.38;1.48;;;;;;;12.84;87.19;101461.75;6215751;23;20131;-78
2021/08/02 02:16:21;;;;;;;5.63;1.40;;;;;;;12.77;87.31;101461.63;6215967;23;20009;-79
2021/08/02 02:18:54;;;;;;;5.72;1.90;;;;;;;12.69;87.38;101471.16;6214753;23;20428;-77
2021/08/02 02:21:24;;;;;;;2.70;1.50;;;;;;;12.63;87.72;101464.03;6216082;23;20113;-79
2021/08/02 02:23:50;;;;;;;5.63;1.52;;;;;;;12.59;87.87;101466.59;6215712;23;20013;-77
2021/08/02 02:26:37;;;;;;;5.50;2.10;;;;;;;12.53;88.11;101469.09;6215919;23;20368;-78
2021/08/02 02:29:05;;;;;;;7.78;2.05;;;;;;;12.50;88.74;101475.22;6215051;23;20459;-78
2021/08/02 02:31:34;;;;;;;5.45;1.77;;;;;;;12.44;88.51;101473.34;6188945;23;20016;-81
2021/08/02 02:34:03;;;;;;;4.88;1.45;;;;;;;12.39;88.59;101472.38;6215367;23;20027;-80
2021/08/02 02:36:49;;;;;;;4.85;1.30;;;;;;;12.30;89.07;101473.09;6215044;23;20023;-78
2021/08/02 02:39:35;;;;;;;6.18;1.70;;;;;;;12.19;89.17;101471.09;6215340;23;20008;-79
2021/08/02 02:42:22;;;;;;;3.92;1.67;;;;;;;12.09;89.87;101465.63;6189089;23;20009;-79
2021/08/02 02:45:07;;;;;;;6.55;1.88;;;;;;;12.01;89.68;101475.13;6215041;23;20087;-78
2021/08/02 02:47:53;;;;;;;7.93;1.95;;;;;;;11.95;89.73;101470.63;6215099;23;20007;-79
2021/08/02 02:50:19;;;;;;;6.80;2.10;;;;;;;11.86;90.00;101473.03;6215387;23;20008;-77
2021/08/02 02:52:49;;;;;;;8.43;1.83;;;;;;;11.80;90.40;101475.53;6216243;23;20079;-82
2021/08/02 02:55:36;;;;;;;7.10;1.70;;;;;;;11.71;90.74;101478.88;6215802;23;20015;-78
2021/08/02 02:58:02;;;;;;;5.75;1.95;;;;;;;11.64;91.14;101471.69;6215533;23;20088;-79
2021/08/02 03:00:27;;;;;;;7.65;2.33;;;;;;;11.60;91.00;101475.13;6215186;23;20000;-81
2021/08/02 03:02:57;;;;;;;5.35;1.90;;;;;;;11.54;91.13;101473.19;6215435;23;20005;-81
2021/08/02 03:05:43;;;;;;;4.80;2.13;;;;;;;11.48;91.45;101473.94;6215752;23;20136;-79
2021/08/02 03:08:11;;;;;;;7.43;1.60;;;;;;;11.45;91.29;101478.28;6188573;23;20012;-77
2021/08/02 03:10:56;;;;;;;5.22;1.77;;;;;;;11.40;91.62;101472.88;6215357;23;20004;-79
2021/08/02 03:13:42;;;;;;;7.25;1.77;;;;;;;11.36;91.88;101476.31;6215234;23;20063;-81
2021/08/02 03:16:08;;;;;;;2.95;1.52;;;;;;;11.32;91.72;101482.38;6215892;23;20009;-80
2021/08/02 03:18:36;;;;;;;6.88;1.80;;;;;;;11.28;92.15;101480.50;6216762;23;20004;-77
2021/08/02 03:21:03;;;;;;;2.65;1.52;;;;;;;11.26;92.17;101482.22;6217169;23;20016;-79
2021/08/02 03:23:48;;;;;;;6.55;2.13;;;;;;;11.23;92.15;101487.41;6217120;23;20433;-83
2021/08/02 03:26:39;;;;;;;9.45;1.70;;;;;;;11.20;92.37;101484.72;6216359;23;20144;-83
2021/08/02 03:29:15;;;;;;;11.13;2.10;;;;;;;11.17;92.58;101488.16;6216513;23;20016;-79
2021/08/02 03:32:04;;;;;;;10.43;2.38;;;;;;;11.18;92.78;101486.41;6216423;23;20074;-78
2021/08/02 03:34:33;;;;;;;2.75;1.85;;;;;;;11.18;92.88;101484.69;6216850;23;20000;-78
2021/08/02 03:37:19;;;;;;;5.57;2.75;;;;;;;11.14;92.99;101483.69;6217473;23;20009;-79
2021/08/02 03:40:04;;;;;;;3.38;2.15;;;;;;;11.13;92.86;101488.94;6216510;23;20013;-81
2021/08/02 03:42:51;;;;;;;6.30;1.85;;;;;;;11.09;92.57;101485.31;6216491;23;20025;-80
2021/08/02 03:45:39;;;;;;;8.45;2.15;;;;;;;11.06;92.92;101494.91;6216485;23;20409;-79
2021/08/02 03:48:05;;;;;;;1.77;1.50;;;;;;;11.03;92.82;101498.34;6216962;23;20013;-78
2021/08/02 03:51:10;;;;;;;5.00;2.22;;;;;;;11.02;93.01;101488.66;6190450;23;20028;-82
2021/08/02 03:53:40;;;;;;;11.20;2.20;;;;;;;11.03;93.17;101507.97;6216305;23;20063;-75
2021/08/02 03:56:07;;;;;;;8.10;1.85;;;;;;;11.03;93.00;101506.25;6217290;23;20008;-79
2021/08/02 03:58:53;;;;;;;11.65;2.25;;;;;;;11.04;92.87;101513.31;6216708;23;20001;-78
2021/08/02 04:01:18;;;;;;;6.00;1.70;;;;;;;11.03;92.74;101511.53;6216755;23;20008;-78
2021/08/02 04:03:44;;;;;;;5.90;2.10;;;;;;;11.01;93.12;101507.94;6217236;23;20005;-81
2021/08/02 04:06:10;;;;;;;7.10;2.58;;;;;;;10.99;93.22;101512.28;6216909;23;20011;-77
2021/08/02 04:08:35;;;;;;;5.88;2.20;;;;;;;10.99;93.40;101519.28;6216568;23;20036;-79
2021/08/02 04:11:01;;;;;;;8.48;2.28;;;;;;;10.98;93.44;101518.41;6216987;23;20005;-78
2021/08/02 04:13:26;;;;;;;6.95;2.20;;;;;;;10.96;93.59;101514.88;6216540;23;20042;-81
2021/08/02 04:15:52;;;;;;;7.43;2.40;;;;;;;10.95;93.49;101513.06;6216399;23;20004;-78
2021/08/02 04:18:17;;;;;;;9.02;2.47;;;;;;;10.92;93.48;101519.16;6216848;23;20008;-79
2021/08/02 04:20:43;;;;;;;4.45;2.40;;;;;;;10.91;93.60;101519.13;6216008;23;20519;-82
2021/08/02 04:23:11;;;;;;;6.30;2.25;;;;;;;10.90;93.68;101514.69;6216377;23;20076;-76
2021/08/02 04:25:37;;;;;;;7.18;2.53;;;;;;;10.89;94.03;101518.16;6216474;23;20012;-79
2021/08/02 04:28:02;;;;;;;4.63;2.70;;;;;;;10.89;94.07;101521.72;6216016;23;20297;-78
2021/08/02 04:30:28;;;;;;;7.93;2.78;;;;;;;10.89;94.25;101518.16;6216162;23;20040;-79
2021/08/02 04:32:53;;;;;;;7.63;2.25;;;;;;;10.90;94.12;101525.22;6215710;23;20004;-81
2021/08/02 04:35:19;;;;;;;3.47;2.25;;;;;;;10.91;94.19;101527.88;6216407;23;20484;-78
2021/08/02 04:38:04;;;;;;;6.00;2.58;;;;;;;10.94;94.08;101527.09;6216126;23;20015;-78
2021/08/02 04:40:29;;;;;;;5.72;2.05;;;;;;;10.96;94.19;101531.53;6216806;23;20335;-79
2021/08/02 04:42:55;;;;;;;7.15;2.80;;;;;;;11.00;94.15;101527.25;6216314;23;20245;-80
2021/08/02 04:45:20;;;;;;;5.43;2.75;;;;;;;11.04;94.33;101522.94;6216687;23;19996;-79
2021/08/02 04:47:45;;;;;;;5.30;2.53;;;;;;;11.06;94.17;101527.38;6216109;23;20004;-80
2021/08/02 04:50:11;;;;;;;6.53;2.67;;;;;;;11.15;94.48;101532.03;6216898;23;20004;-81
2021/08/02 04:52:37;;;;;;;6.60;2.72;;;;;;;11.25;94.98;101527.88;6215891;23;20343;-80
2021/08/02 04:55:02;;;;;;;7.80;3.35;;;;;;;11.37;94.94;101527.28;6216365;23;20084;-80
2021/08/02 04:57:28;;;;;;;11.88;4.38;;;;;;;11.47;95.02;101524.88;6216496;23;20316;-79
2021/08/02 04:59:53;;;;;;;12.32;3.53;;;;;;;11.56;94.79;101523.34;6216144;23;20090;-81
2021/08/02 05:02:19;;;;;;;11.82;4.00;;;;;;;11.65;94.68;101528.81;6216621;23;20000;-80
2021/08/02 05:04:44;;;;;;;5.97;3.00;;;;;;;11.74;94.45;101525.50;6216359;23;20045;-81
2021/08/02 05:07:09;;;;;;;8.48;3.05;;;;;;;11.85;94.42;101525.75;6216401;23;20004;-82
2021/08/02 05:09:35;;;;;;;9.25;2.80;;;;;;;12.01;94.63;101519.09;6216789;23;20132;-78
2021/08/02 05:12:00;;;;;;;3.35;2.72;;;;;;;12.20;94.83;101528.28;6216285;23;20052;-81
2021/08/02 05:14:25;;;;;;;9.88;2.78;;;;;;;12.40;95.02;101534.88;6216200;23;20013;-79
2021/08/02 05:16:51;;;;;;;3.83;2.30;;;;;;;12.51;94.54;101536.81;6216155;23;20028;-80
2021/08/02 05:19:16;;;;;;;11.50;2.78;;;;;;;12.58;93.92;101533.44;6216137;23;20470;-79
2021/08/02 05:21:41;;;;;;;3.17;2.33;;;;;;;12.65;93.36;101530.06;6216250;23;20040;-79
2021/08/02 05:24:07;;;;;;;13.93;2.63;;;;;;;12.69;92.43;101534.53;6216136;23;20035;-79
2021/08/02 05:26:32;;;;;;;12.70;2.38;;;;;;;12.72;91.92;101536.34;6215913;23;20122;-78
2021/08/02 05:28:58;;;;;;;7.00;2.15;;;;;;;12.79;91.51;101533.84;6216208;23;20337;-79
2021/08/02 05:31:24;;;;;;;5.50;2.17;;;;;;;12.90;91.25;101526.13;6189282;23;20424;-77
2021/08/02 05:33:49;;;;;;;7.45;2.30;;;;;;;13.05;90.98;101533.44;6215837;23;20004;-78
2021/08/02 05:36:19;;;;;;;6.85;2.22;;;;;;;13.23;90.17;101540.78;6215815;23;20007;-81
2021/08/02 05:39:04;;;;;;;4.53;1.70;;;;;;;13.43;88.81;101538.50;6215582;23;20001;-80
2021/08/02 05:41:30;;;;;;;4.63;1.98;;;;;;;13.70;87.93;101542.44;6215096;23;20013;-81
2021/08/02 05:43:55;;;;;;;5.75;2.17;;;;;;;13.98;86.05;101542.81;6216073;23;20004;-80
2021/08/02 05:46:20;;;;;;;4.93;1.77;;;;;;;14.23;84.28;101538.75;6215774;23;20474;-79
2021/08/02 05:48:47;;;;;;;6.20;1.63;;;;;;;14.42;83.06;101531.94;6215515;23;20163;-80
2021/08/02 05:51:32;;;;;;;4.78;1.88;;;;;;;14.52;82.88;101537.34;6188302;23;20013;-80
2021/08/02 05:53:58;;;;;;;5.38;1.70;;;;;;;14.58;82.33;101534.75;6216060;23;20029;-79
2021/08/02 05:56:23;;;;;;;3.55;1.55;;;;;;;14.57;82.24;101528.56;6215821;23;20012;-79
2021/08/02 05:58:49;;;;;;;7.28;1.92;;;;;;;14.62;81.52;101539.19;6216073;23;20408;-80
2021/08/02 06:01:17;;;;;;;9.68;2.05;;;;;;;14.68;80.98;101534.00;6215548;23;20005;-80
2021/08/02 06:03:42;;;;;;;4.25;1.48;;;;;;;14.82;79.49;101532.38;6215535;23;20007;-77
2021/08/02 06:06:28;;;;;;;4.93;1.08;;;;;;;15.00;78.82;101525.47;6188396;23;20071;-77
2021/08/02 06:08:53;;;;;;;9.38;1.80;;;;;;;15.23;77.85;101524.81;6215706;23;20013;-78
2021/08/02 06:11:19;;;;;;;4.55;1.40;;;;;;;15.54;77.58;101523.25;6214538;23;20016;-78
2021/08/02 06:14:04;;;;;;;5.68;1.33;;;;;;;16.02;74.43;101518.28;6215189;23;20040;-78
2021/08/02 06:16:30;;;;;;;4.78;1.00;;;;;;;16.67;72.42;101510.50;6216349;23;20071;-81
2021/08/02 06:18:57;;;;;;;7.93;1.30;;;;;;;17.41;70.20;101513.25;6215873;23;20355;-78
2021/08/02 06:21:22;;;;;;;2.80;1.15;;;;;;;18.19;65.85;101512.19;6215963;23;20008;-78
2021/08/02 06:23:47;;;;;;;5.38;1.15;;;;;;;18.84;63.25;101498.50;6215119;23;20088;-80
2021/08/02 06:26:13;;;;;;;6.93;1.30;;;;;;;19.42;61.44;101490.03;6215803;23;20007;-77
2021/08/02 06:28:38;;;;;;;3.05;1.02;;;;;;;19.83;62.26;101497.66;6215539;23;20019;-80
2021/08/02 06:31:03;;;;;;;9.15;1.23;;;;;;;20.15;58.54;101485.66;6215720;23;20023;-80
2021/08/02 06:33:30;;;;;;;6.30;1.13;;;;;;;20.27;60.24;101502.47;6215315;23;20009;-79
2021/08/02 06:35:55;;;;;;;3.78;1.38;;;;;;;20.51;60.12;101494.09;6215762;23;20148;-80
2021/08/02 06:38:20;;;;;;;5.25;1.65;;;;;;;20.71;62.13;101508.97;6203490;23;20507;-78
2021/08/02 06:40:46;;;;;;;10.05;1.30;;;;;;;21.21;55.25;101469.81;6210570;23;20016;-79
2021/08/02 06:43:15;;;;;;;5.07;1.50;;;;;;;21.21;60.84;101495.69;6210666;23;20015;-78
2021/08/02 06:45:41;;;;;;;8.38;1.30;;;;;;;21.43;54.60;101466.75;6212285;23;20095;-78
2021/08/02 06:48:06;;;;;;;2.17;0.95;;;;;;;20.88;59.41;101498.91;6204900;23;20013;-78
2021/08/02 06:50:32;;;;;;;4.40;1.25;;;;;;;20.07;56.68;101487.56;6211639;23;20004;-81
2021/08/02 06:52:58;;;;;;;6.13;1.55;;;;;;;19.31;61.14;101514.16;6214493;23;20372;-79
2021/08/02 06:55:25;;;;;;;3.97;0.88;;;;;;;18.82;61.02;101510.94;6212710;23;20001;-78
2021/08/02 06:57:51;;;;;;;4.95;1.30;;;;;;;18.37;61.30;101518.34;6213770;23;20008;-77
2021/08/02 07:00:36;;;;;;;5.22;1.00;;;;;;;18.25;62.52;101521.94;6214615;23;20024;-78
2021/08/02 07:03:02;;;;;;;3.47;1.13;;;;;;;18.44;63.24;101521.84;6214009;23;20509;-80
2021/08/02 07:05:28;;;;;;;4.15;0.93;;;;;;;18.65;62.23;101520.84;6213700;23;20004;-78
2021/08/02 07:07:54;;;;;;;6.07;1.10;;;;;;;18.67;64.93;101529.72;6214864;23;20013;-80
2021/08/02 07:10:34;;;;;;;3.17;0.80;;;;;;;18.93;64.15;101534.03;6215198;23;20012;-79
2021/08/02 07:13:00;;;;;;;6.90;1.10;;;;;;;19.36;61.15;101517.69;6214208;23;20055;-77
2021/08/02 07:15:33;;;;;;;4.72;1.00;;;;;;;19.81;58.47;101509.25;6215731;23;20001;-78
2021/08/02 07:17:58;;;;;;;6.32;1.73;;;;;;;19.93;59.31;101516.25;6189506;23;20013;-80
2021/08/02 07:20:24;;;;;;;6.15;1.17;;;;;;;19.78;63.62;101536.84;6215597;23;20003;-77
2021/08/02 07:22:51;;;;;;;3.10;1.20;;;;;;;19.44;61.33;101533.59;6215413;23;20416;-80
2021/08/02 07:25:32;;;;;;;4.75;1.48;;;;;;;19.10;61.40;101529.47;6213186;23;20006;-80
2021/08/02 07:27:58;;;;;;;6.20;1.45;;;;;;;18.78;61.86;101535.88;6215297;23;20006;-77
2021/08/02 07:30:24;;;;;;;3.42;1.20;;;;;;;18.36;59.62;101532.53;6212811;23;20095;-77
2021/08/02 07:33:09;;;;;;;3.83;1.08;;;;;;;17.75;60.63;101538.94;6213940;23;20001;-77
2021/08/02 07:35:34;;;;;;;2.28;1.02;;;;;;;17.39;63.07;101554.03;6214727;23;20074;-78
2021/08/02 07:38:00;;;;;;;4.60;1.48;;;;;;;16.80;69.52;101576.09;6213162;23;20371;-81
2021/08/02 07:40:26;;;;;;;5.43;1.42;;;;;;;16.16;73.90;101584.72;6214458;23;20004;-83
2021/08/02 07:42:51;;;;;;;8.07;2.10;;;;;;;15.83;78.22;101589.84;6214421;23;20005;-86
2021/08/02 07:45:17;;;;;;;5.78;1.55;;;;;;;15.48;78.68;101595.72;6214363;23;20070;-83
2021/08/02 07:47:42;;;;;;;6.40;1.55;;;;;;;15.33;80.77;101599.13;6215404;23;20096;-82
2021/08/02 07:50:33;;;;;;;7.88;1.83;;;;;;;15.21;81.40;101593.72;6215440;23;20028;-82
2021/08/02 07:52:59;;;;;;;3.63;1.65;;;;;;;15.16;81.96;101603.38;6215228;23;20059;-81
2021/08/02 07:55:24;;;;;;;7.13;2.58;;;;;;;15.11;81.25;101592.75;6213157;23;20009;-77
2021/08/02 07:57:50;;;;;;;7.72;1.63;;;;;;;15.06;82.09;101601.53;6189433;23;20551;-77
2021/08/02 08:00:18;;;;;;;6.75;1.80;;;;;;;15.04;80.92;101596.19;6213605;23;20008;-81
2021/08/02 08:02:47;;;;;;;3.17;1.30;;;;;;;15.01;83.24;101609.44;6213061;23;20012;-78
2021/08/02 08:05:29;;;;;;;2.30;1.38;;;;;;;14.97;80.37;101604.97;6214547;23;19996;-78
2021/08/02 08:08:14;;;;;;;4.53;1.50;;;;;;;14.99;81.60;101604.13;6214966;23;20008;-77
2021/08/02 08:10:40;;;;;;;9.05;1.60;;;;;;;15.06;79.93;101609.50;6215109;23;20046;-81
2021/08/02 08:13:07;;;;;;;3.33;1.35;;;;;;;15.08;81.53;101607.72;6214370;23;20016;-80
2021/08/02 08:15:32;;;;;;;5.93;1.20;;;;;;;15.16;78.66;101600.75;6214792;23;20001;-76
2021/08/02 08:17:58;;;;;;;5.78;1.48;;;;;;;15.28;79.37;101605.28;6213612;23;20012;-81
2021/08/02 08:20:25;;;;;;;5.60;1.70;;;;;;;15.29;80.56;101599.97;6213683;23;20004;-78
2021/08/02 08:22:51;;;;;;;9.95;1.77;;;;;;;15.49;82.10;101607.22;6186509;23;20075;-83
2021/08/02 08:25:17;;;;;;;4.68;1.73;;;;;;;15.64;80.97;101598.50;6214235;23;20042;-82
2021/08/02 08:27:43;;;;;;;7.10;1.67;;;;;;;15.82;79.24;101598.66;6214995;23;20004;-77
2021/08/02 08:30:11;;;;;;;5.78;1.23;;;;;;;16.03;77.04;101591.72;6215226;23;20036;-83
2021/08/02 08:32:36;;;;;;;6.10;1.17;;;;;;;16.30;73.20;101584.78;6215889;23;20089;-77
2021/08/02 08:35:04;;;;;;;7.97;1.73;;;;;;;16.56;72.45;101589.31;6214724;23;20416;-81
2021/08/02 08:37:30;;;;;;;9.23;1.30;;;;;;;16.74;72.60;101581.44;6214863;23;20016;-80
2021/08/02 08:39:55;;;;;;;3.72;1.50;;;;;;;16.86;74.47;101596.50;6215415;23;20365;-79
2021/08/02 08:42:21;;;;;;;4.75;1.17;;;;;;;16.94;75.41;101593.91;6215903;23;20008;-79
2021/08/02 08:44:46;;;;;;;3.38;1.50;;;;;;;17.09;75.34;101588.63;6215195;23;20375;-80
2021/08/02 08:47:12;;;;;;;5.43;1.50;;;;;;;17.26;72.64;101590.41;6215115;23;20048;-81
2021/08/02 08:49:38;;;;;;;5.22;1.20;;;;;;;17.40;74.80;101598.41;6214176;23;20017;-80
2021/08/02 08:52:05;;;;;;;7.30;1.38;;;;;;;17.30;74.02;101592.19;6214653;23;20015;-76
2021/08/02 08:54:31;;;;;;;4.18;1.10;;;;;;;17.33;74.30;101592.19;6214294;23;20269;-81
2021/08/02 08:56:57;;;;;;;2.75;1.17;;;;;;;17.31;74.18;101594.84;6187373;23;20016;-77
2021/08/02 08:59:22;;;;;;;7.78;1.42;;;;;;;17.45;71.73;101593.97;6215596;23;20424;-81
2021/08/02 09:01:59;;;;;;;2.80;1.30;;;;;;;17.65;66.13;101580.66;6215461;23;20115;-81
2021/08/02 09:04:29;;;;;;;4.28;1.15;;;;;;;17.74;67.22;101582.41;6215942;23;20008;-83
2021/08/02 09:06:58;;;;;;;5.13;1.38;;;;;;;17.75;69.78;101595.72;6215308;23;20011;-79
2021/08/02 09:09:30;;;;;;;7.60;1.60;;;;;;;17.76;68.42;101592.16;6215439;23;20012;-81
2021/08/02 09:12:10;;;;;;;3.47;1.08;;;;;;;18.07;70.75;101600.16;6215824;23;20012;-81
2021/08/02 09:14:36;;;;;;;5.47;1.30;;;;;;;18.36;65.90;101593.84;6215568;23;20000;-79
2021/08/02 09:17:02;;;;;;;5.78;1.15;;;;;;;18.36;63.72;101591.16;6216627;23;20032;-78
2021/08/02 09:19:38;;;;;;;8.07;1.58;;;;;;;18.57;67.41;101590.19;6216061;23;20305;-84
2021/08/02 09:22:04;;;;;;;3.58;1.10;;;;;;;18.82;66.60;101598.94;6216488;23;20028;-75
2021/08/02 09:24:53;;;;;;;3.95;1.30;;;;;;;18.84;67.37;101597.16;6216292;23;20420;-80
2021/08/02 09:27:44;;;;;;;3.50;1.10;;;;;;;18.88;66.75;101598.03;6214333;23;20010;-82
2021/08/02 09:30:31;;;;;;;5.95;1.23;;;;;;;18.61;64.22;101593.72;6212966;23;20100;-82
2021/08/02 09:33:09;;;;;;;4.75;1.42;;;;;;;18.61;64.48;101594.63;6215182;23;20017;-78
2021/08/02 09:35:55;;;;;;;7.45;1.35;;;;;;;18.48;63.34;101579.59;6215617;23;20005;-80
2021/08/02 09:38:23;;;;;;;4.40;1.40;;;;;;;18.60;64.34;101595.50;6215840;23;20321;-78
2021/08/02 09:41:41;;;;;;;4.40;1.30;;;;;;;18.89;64.85;101598.97;6183711;23;20040;-75
2021/08/02 09:44:17;;;;;;;8.70;1.40;;;;;;;19.07;64.82;101597.94;6204920;23;20035;-81
2021/08/02 09:46:53;;;;;;;5.78;2.00;;;;;;;19.24;62.10;101596.03;6211836;23;20075;-79
2021/08/02 09:49:19;;;;;;;4.57;1.25;;;;;;;19.52;59.36;101588.69;6215152;23;20447;-81
2021/08/02 09:51:44;;;;;;;5.93;1.55;;;;;;;19.32;58.26;101590.66;6216181;23;20004;-81
2021/08/02 09:54:20;;;;;;;8.98;1.60;;;;;;;19.57;61.95;101599.31;6216300;23;20061;-81
2021/08/02 09:56:49;;;;;;;4.68;1.15;;;;;;;19.72;55.67;101566.25;6216261;23;20009;-79
2021/08/02 09:59:14;;;;;;;5.03;1.48;;;;;;;19.91;60.80;101587.47;6216235;23;20007;-77
2021/08/02 10:01:41;;;;;;;4.82;1.05;;;;;;;20.25;58.36;101582.63;6216677;23;20071;-80
2021/08/02 10:04:46;;;;;;;3.30;1.17;;;;;;;20.93;59.66;101583.56;6214680;23;20000;-83
2021/08/02 10:07:13;;;;;;;4.05;0.95;;;;;;;22.23;50.07;101548.28;6214925;23;20065;-80
2021/08/02 10:09:38;;;;;;;5.05;1.00;;;;;;;23.01;47.85;101544.75;6210598;23;20064;-75
2021/08/02 10:12:24;;;;;;;4.30;1.20;;;;;;;22.37;48.79;101547.13;6187897;23;20086;-80
2021/08/02 10:14:55;;;;;;;3.47;0.80;;;;;;;22.48;49.61;101547.78;6213737;23;20035;-80
2021/08/02 10:17:20;;;;;;;3.20;1.15;;;;;;;22.27;50.40;101549.06;6214843;23;20004;-78
2021/08/02 10:19:56;;;;;;;2.30;0.85;;;;;;;22.10;48.51;101546.75;6214304;23;20011;-81
2021/08/02 10:22:21;;;;;;;2.30;1.23;;;;;;;22.21;48.36;101550.09;6214755;23;20022;-78
2021/08/02 10:25:07;;;;;;;3.30;1.10;;;;;;;23.40;46.36;101543.84;6215025;23;20040;-79
2021/08/02 10:27:32;;;;;;;4.25;1.30;;;;;;;23.31;45.49;101538.72;6216134;23;20009;-79
2021/08/02 10:29:58;;;;;;;2.47;1.10;;;;;;;23.98;45.35;101536.00;6213437;23;20044;-79
2021/08/02 10:32:50;;;;;;;3.10;0.80;;;;;;;23.48;42.49;101509.63;6191687;23;19993;-81
2021/08/02 10:35:15;;;;;;;4.18;1.00;;;;;;;23.77;45.17;101528.56;6219880;23;20006;-78
2021/08/02 10:37:40;;;;;;;11.35;1.50;;;;;;;24.16;44.27;101529.25;6218081;23;20430;-78
2021/08/02 10:40:27;;;;;;;3.80;0.98;;;;;;;25.23;43.66;101521.41;6217992;23;20012;-82
2021/08/02 10:42:52;;;;;;;4.80;1.20;;;;;;;24.67;43.82;101519.63;6216911;23;20015;-81
2021/08/02 10:45:34;;;;;;;3.58;0.90;;;;;;;24.07;41.70;101508.00;6213816;23;20008;-81
2021/08/02 10:48:00;;;;;;;2.17;0.95;;;;;;;24.17;46.79;101536.41;6211751;23;20035;-77
2021/08/02 10:50:30;;;;;;;4.47;1.23;;;;;;;24.07;44.64;101529.50;6217817;23;20408;-77
2021/08/02 10:52:58;;;;;;;4.10;1.10;;;;;;;24.44;40.75;101519.47;6217370;23;20004;-78
2021/08/02 10:56:03;;;;;;;4.57;1.20;;;;;;;24.67;40.42;101513.38;6218238;23;20004;-79
2021/08/02 10:58:30;;;;;;;7.50;1.40;;;;;;;24.61;43.07;101529.69;6218261;23;20008;-79
2021/08/02 11:01:16;;;;;;;3.28;1.30;;;;;;;23.62;43.24;101532.53;6218148;23;20261;-79
2021/08/02 11:04:12;;;;;;;2.38;1.02;;;;;;;23.79;42.13;101534.75;6217097;23;20011;-79
2021/08/02 11:06:37;;;;;;;5.07;1.25;;;;;;;23.68;42.43;101538.59;6208478;23;20031;-81
2021/08/02 11:09:02;;;;;;;4.38;0.82;;;;;;;24.20;41.29;101533.59;6217299;23;20005;-78
2021/08/02 11:11:30;;;;;;;11.02;1.92;;;;;;;23.97;40.91;101525.31;6216672;23;20044;-81
2021/08/02 11:14:21;;;;;;;4.28;1.17;;;;;;;24.39;43.65;101533.94;6216907;23;20452;-78
2021/08/02 11:16:47;;;;;;;8.00;1.30;;;;;;;24.26;43.23;101539.75;6217046;23;20008;-83
2021/08/02 11:20:02;;;;;;;4.85;1.10;;;;;;;24.00;45.67;101544.94;6217216;23;20059;-78
2021/08/02 11:22:27;;;;;;;2.92;1.00;;;;;;;23.85;47.94;101556.97;6217260;23;20008;-79
2021/08/02 11:24:55;;;;;;;6.00;1.45;;;;;;;23.98;44.29;101551.28;6216926;23;20077;-77
2021/08/02 11:27:41;;;;;;;6.85;1.33;;;;;;;23.55;44.96;101547.94;6215771;23;20023;-77
2021/08/02 11:30:30;;;;;;;3.72;1.10;;;;;;;23.12;42.87;101549.88;6215715;23;20531;-77
2021/08/02 11:32:56;;;;;;;6.65;1.02;;;;;;;22.72;47.58;101569.59;6216810;23;20009;-80
2021/08/02 11:35:32;;;;;;;4.20;0.90;;;;;;;22.77;44.08;101561.44;6217522;23;20407;-78
2021/08/02 11:37:57;;;;;;;4.30;1.15;;;;;;;22.48;43.95;101549.59;6217469;23;20008;-82
2021/08/02 11:40:26;;;;;;;3.38;1.10;;;;;;;22.77;45.52;101578.41;6217364;23;20009;-78
2021/08/02 11:43:01;;;;;;;4.13;1.05;;;;;;;22.41;46.34;101578.34;6216786;23;20000;-79
2021/08/02 11:45:28;;;;;;;2.08;0.90;;;;;;;22.36;45.01;101574.84;6215817;23;20510;-79
2021/08/02 11:47:53;;;;;;;4.97;0.95;;;;;;;22.91;46.82;101567.34;6216759;23;20000;-78